Search for airport 
image banner adimage banner adimage banner ad
image banner ad

4CL1 - Lyon

Located in Rancho Santa Margarita, United States

ICAO - 4CL1, IATA -

Data provided by Airmate  

General information

Coordinates: N33°36'46" W117°35'29"
Elevation is 898 feet MSL.
Magnetic variation is 14° East
View others Airports in California

Operational data

Special qualification required
Current time UTC:
Current local time:
METAR: KSNA 291553Z 00000KT 10SM FEW230 23/17 A2993 RMK AO2 SLP135 T02280167
TAF: KSNA 291120Z 2912/3012 VRB04KT P6SM FEW008 FM291800 22010KT P6SM SKC FM300200 VRB05KT P6SM FEW200 FM301100 VRB04KT P6SM BKN010
View NOTAMs / SUP AIP / TFR affecting this airport [VIEW]
Communications frequencies: [VIEW]

Runways:

Airport contact information

Address: Rancho Santa Margarita United States

Satellite view of 4CL1